AAL2286 KMCI-KDAL
Flight info
| Callsign | AAL2286 |
|---|---|
| Flight time | N/A |
| Altitude | 36000 |
| Route | RACER8 DOSOA HITUG HIBIL3 |
| Aircraft | MD83/M-SDFGIRWY/S |
Departure
| Time | 2026-04-30 00:15 |
|---|---|
| Airport | Kansas City International Airport (KMCI) |
Arrival
| Time | N/A |
|---|---|
| Airport | Dallas Love Field (KDAL) |
| Time | Latitude | Longitude | Altitude | Speed | Heading |
|---|---|---|---|---|---|
| 2026-04-29 23:27 | 39.30088 | -94.71858 | 1015 ft | 0 kts | 191° |
| 2026-04-29 23:58 | 39.30090 | -94.71856 | 1015 ft | 4 kts | 179° |
| 2026-04-29 23:58 | 39.30111 | -94.71850 | 1015 ft | 4 kts | 210° |
| 2026-04-29 23:59 | 39.30122 | -94.71835 | 1015 ft | 4 kts | 270° |
| 2026-04-29 23:59 | 39.30115 | -94.71805 | 1015 ft | 4 kts | 295° |
| 2026-04-29 23:59 | 39.30111 | -94.71795 | 1015 ft | 2 kts | 294° |
| 2026-04-30 00:06 | 39.30111 | -94.71796 | 1015 ft | 0 kts | 294° |
| 2026-04-30 00:06 | 39.30114 | -94.71804 | 1015 ft | 1 kts | 294° |
| 2026-04-30 00:06 | 39.30120 | -94.71821 | 1015 ft | 3 kts | 294° |
| 2026-04-30 00:06 | 39.30127 | -94.71845 | 1015 ft | 3 kts | 286° |
| 2026-04-30 00:07 | 39.30135 | -94.71879 | 1015 ft | 4 kts | 285° |
| 2026-04-30 00:07 | 39.30144 | -94.71921 | 1015 ft | 5 kts | 285° |
| 2026-04-30 00:07 | 39.30151 | -94.71969 | 1015 ft | 6 kts | 282° |
| 2026-04-30 00:07 | 39.30160 | -94.72023 | 1015 ft | 7 kts | 282° |
| 2026-04-30 00:08 | 39.30170 | -94.72085 | 1015 ft | 7 kts | 282° |
| 2026-04-30 00:08 | 39.30181 | -94.72153 | 1015 ft | 8 kts | 282° |
| 2026-04-30 00:08 | 39.30194 | -94.72228 | 1015 ft | 9 kts | 282° |
| 2026-04-30 00:08 | 39.30207 | -94.72309 | 1015 ft | 10 kts | 282° |
| 2026-04-30 00:09 | 39.30210 | -94.72392 | 1015 ft | 9 kts | 237° |
| 2026-04-30 00:09 | 39.30156 | -94.72417 | 1015 ft | 9 kts | 192° |
| 2026-04-30 00:09 | 39.30092 | -94.72434 | 1015 ft | 10 kts | 192° |
| 2026-04-30 00:09 | 39.30023 | -94.72453 | 1015 ft | 10 kts | 192° |
| 2026-04-30 00:10 | 39.29949 | -94.72473 | 1015 ft | 11 kts | 192° |
| 2026-04-30 00:10 | 39.29870 | -94.72497 | 1015 ft | 12 kts | 193° |
| 2026-04-30 00:10 | 39.29787 | -94.72523 | 1015 ft | 13 kts | 193° |
| 2026-04-30 00:10 | 39.29699 | -94.72550 | 1015 ft | 13 kts | 193° |
| 2026-04-30 00:11 | 39.29606 | -94.72579 | 1015 ft | 14 kts | 193° |
| 2026-04-30 00:11 | 39.29510 | -94.72609 | 1015 ft | 15 kts | 193° |
| 2026-04-30 00:11 | 39.29408 | -94.72637 | 1015 ft | 15 kts | 191° |
| 2026-04-30 00:11 | 39.29304 | -94.72667 | 1015 ft | 16 kts | 193° |
| 2026-04-30 00:12 | 39.29235 | -94.72755 | 1014 ft | 14 kts | 281° |
| 2026-04-30 00:12 | 39.29259 | -94.72795 | 1014 ft | 0 kts | 317° |
| 2026-04-30 00:13 | 39.29260 | -94.72796 | 1014 ft | 1 kts | 317° |
| 2026-04-30 00:13 | 39.29268 | -94.72805 | 1014 ft | 2 kts | 317° |
| 2026-04-30 00:13 | 39.29286 | -94.72827 | 1014 ft | 5 kts | 317° |
| 2026-04-30 00:13 | 39.29318 | -94.72864 | 1013 ft | 8 kts | 317° |
| 2026-04-30 00:14 | 39.29361 | -94.72914 | 1013 ft | 9 kts | 320° |
| 2026-04-30 00:14 | 39.29388 | -94.72922 | 1013 ft | 2 kts | 12° |
| 2026-04-30 00:14 | 39.29424 | -94.72912 | 1013 ft | 10 kts | 12° |
| 2026-04-30 00:14 | 39.29578 | -94.72867 | 1015 ft | 46 kts | 13° |
| 2026-04-30 00:15 | 39.30089 | -94.72715 | 1017 ft | 108 kts | 13° |
| 2026-04-30 00:15 | 39.31011 | -94.72451 | 1016 ft | 162 kts | 13° |
| 2026-04-30 00:15 | 39.32210 | -94.72086 | 1386 ft | 182 kts | 12° |
| 2026-04-30 00:15 | 39.33381 | -94.71739 | 2493 ft | 160 kts | 12° |
| 2026-04-30 00:16 | 39.34452 | -94.71429 | 3258 ft | 167 kts | 13° |
| 2026-04-30 00:16 | 39.35659 | -94.70921 | 3541 ft | 192 kts | 26° |
| 2026-04-30 00:16 | 39.36676 | -94.69900 | 4472 ft | 181 kts | 50° |
| 2026-04-30 00:16 | 39.37175 | -94.68474 | 5014 ft | 198 kts | 82° |
| 2026-04-30 00:17 | 39.36854 | -94.66605 | 5205 ft | 227 kts | 122° |
| 2026-04-30 00:17 | 39.35680 | -94.65427 | 6082 ft | 218 kts | 166° |
| 2026-04-30 00:17 | 39.34235 | -94.65268 | 7028 ft | 201 kts | 179° |
| 2026-04-30 00:17 | 39.32852 | -94.65216 | 7727 ft | 195 kts | 178° |
| 2026-04-30 00:18 | 39.31544 | -94.65178 | 8443 ft | 188 kts | 180° |
| 2026-04-30 00:18 | 39.30208 | -94.65180 | 8905 ft | 190 kts | 181° |
| 2026-04-30 00:18 | 39.28908 | -94.65310 | 9438 ft | 193 kts | 197° |
| 2026-04-30 00:18 | 39.27633 | -94.65948 | 9876 ft | 195 kts | 207° |
| 2026-04-30 00:19 | 39.26384 | -94.66693 | 10320 ft | 202 kts | 206° |
| 2026-04-30 00:19 | 39.25068 | -94.67462 | 10610 ft | 217 kts | 206° |
| 2026-04-30 00:19 | 39.23640 | -94.68294 | 10714 ft | 240 kts | 205° |
| 2026-04-30 00:19 | 39.22033 | -94.69216 | 10746 ft | 265 kts | 205° |
| 2026-04-30 00:20 | 39.20272 | -94.70194 | 10754 ft | 286 kts | 204° |
| 2026-04-30 00:20 | 39.18348 | -94.71219 | 10754 ft | 312 kts | 203° |
| 2026-04-30 00:20 | 39.16257 | -94.72293 | 10766 ft | 333 kts | 202° |
| 2026-04-30 00:20 | 39.14089 | -94.73373 | 10783 ft | 334 kts | 201° |
| 2026-04-30 00:21 | 39.11898 | -94.74445 | 11093 ft | 340 kts | 201° |
| 2026-04-30 00:21 | 39.09685 | -94.75518 | 11710 ft | 339 kts | 201° |
| 2026-04-30 00:21 | 39.07475 | -94.76587 | 12301 ft | 339 kts | 201° |
| 2026-04-30 00:21 | 39.05261 | -94.77660 | 12795 ft | 341 kts | 201° |
| 2026-04-30 00:22 | 39.03058 | -94.78730 | 13250 ft | 344 kts | 201° |
| 2026-04-30 00:22 | 39.00809 | -94.79824 | 13698 ft | 347 kts | 201° |
| 2026-04-30 00:22 | 38.98547 | -94.80928 | 14130 ft | 349 kts | 201° |
| 2026-04-30 00:22 | 38.96268 | -94.82043 | 14572 ft | 351 kts | 201° |
| 2026-04-30 00:23 | 38.93981 | -94.83162 | 14980 ft | 353 kts | 201° |
| 2026-04-30 00:23 | 38.91671 | -94.84294 | 15373 ft | 356 kts | 201° |
| 2026-04-30 00:23 | 38.89352 | -94.85430 | 15766 ft | 358 kts | 201° |
| 2026-04-30 00:23 | 38.87018 | -94.86572 | 16173 ft | 360 kts | 201° |
| 2026-04-30 00:24 | 38.84705 | -94.87703 | 16561 ft | 361 kts | 201° |
| 2026-04-30 00:24 | 38.82347 | -94.88856 | 16890 ft | 365 kts | 201° |
| 2026-04-30 00:24 | 38.79971 | -94.90018 | 17271 ft | 367 kts | 201° |
| 2026-04-30 00:24 | 38.77580 | -94.91186 | 17670 ft | 368 kts | 201° |
| 2026-04-30 00:25 | 38.75182 | -94.92359 | 18064 ft | 370 kts | 201° |
| 2026-04-30 00:25 | 38.72757 | -94.93483 | 18412 ft | 372 kts | 198° |
| 2026-04-30 00:25 | 38.70259 | -94.94415 | 18748 ft | 375 kts | 195° |
| 2026-04-30 00:25 | 38.67728 | -94.95258 | 19116 ft | 377 kts | 194° |
| 2026-04-30 00:26 | 38.65184 | -94.96086 | 19473 ft | 378 kts | 194° |
| 2026-04-30 00:26 | 38.62738 | -94.96886 | 19800 ft | 380 kts | 195° |
| 2026-04-30 00:26 | 38.60184 | -94.97736 | 20137 ft | 382 kts | 195° |
| 2026-04-30 00:26 | 38.57606 | -94.98610 | 20450 ft | 385 kts | 195° |
| 2026-04-30 00:27 | 38.55039 | -94.99494 | 20789 ft | 386 kts | 195° |
| 2026-04-30 00:27 | 38.52443 | -95.00397 | 21120 ft | 388 kts | 195° |
| 2026-04-30 00:27 | 38.49830 | -95.01312 | 21433 ft | 391 kts | 195° |
| 2026-04-30 00:27 | 38.47208 | -95.02231 | 21783 ft | 392 kts | 195° |
| 2026-04-30 00:28 | 38.44571 | -95.03154 | 22106 ft | 393 kts | 195° |
| 2026-04-30 00:28 | 38.41960 | -95.04065 | 22404 ft | 396 kts | 195° |
| 2026-04-30 00:28 | 38.39296 | -95.04992 | 22701 ft | 398 kts | 195° |
| 2026-04-30 00:28 | 38.36618 | -95.05922 | 23024 ft | 399 kts | 195° |
| 2026-04-30 00:29 | 38.33932 | -95.06853 | 23339 ft | 401 kts | 195° |
| 2026-04-30 00:29 | 38.31230 | -95.07788 | 23623 ft | 403 kts | 195° |
| 2026-04-30 00:29 | 38.28520 | -95.08725 | 23909 ft | 405 kts | 195° |
| 2026-04-30 00:29 | 38.25797 | -95.09665 | 24178 ft | 408 kts | 195° |
| 2026-04-30 00:30 | 38.23054 | -95.10612 | 24496 ft | 409 kts | 195° |
| 2026-04-30 00:30 | 38.20307 | -95.11559 | 24810 ft | 410 kts | 195° |
| 2026-04-30 00:30 | 38.17587 | -95.12495 | 25071 ft | 412 kts | 194° |
| 2026-04-30 00:30 | 38.14769 | -95.13211 | 25321 ft | 414 kts | 188° |
| 2026-04-30 00:31 | 38.11908 | -95.13690 | 25581 ft | 416 kts | 187° |
| 2026-04-30 00:31 | 38.09027 | -95.14102 | 25838 ft | 417 kts | 186° |
| 2026-04-30 00:31 | 38.06133 | -95.14511 | 26066 ft | 420 kts | 186° |
| 2026-04-30 00:31 | 38.03228 | -95.14937 | 26321 ft | 421 kts | 187° |
| 2026-04-30 00:32 | 38.00318 | -95.15385 | 26584 ft | 422 kts | 187° |
| 2026-04-30 00:32 | 37.97403 | -95.15852 | 26811 ft | 423 kts | 187° |
| 2026-04-30 00:32 | 37.94514 | -95.16329 | 27030 ft | 425 kts | 188° |
| 2026-04-30 00:32 | 37.91578 | -95.16821 | 27253 ft | 427 kts | 188° |
| 2026-04-30 00:33 | 37.88631 | -95.17317 | 27476 ft | 428 kts | 188° |
| 2026-04-30 00:33 | 37.85673 | -95.17812 | 27681 ft | 430 kts | 187° |
| 2026-04-30 00:33 | 37.82703 | -95.18307 | 27892 ft | 431 kts | 187° |
| 2026-04-30 00:33 | 37.79727 | -95.18799 | 28116 ft | 432 kts | 187° |
| 2026-04-30 00:34 | 37.76742 | -95.19290 | 28318 ft | 433 kts | 187° |
| 2026-04-30 00:34 | 37.73751 | -95.19781 | 28502 ft | 435 kts | 187° |
| 2026-04-30 00:34 | 37.70744 | -95.20272 | 28694 ft | 436 kts | 187° |
| 2026-04-30 00:34 | 37.67768 | -95.20756 | 28876 ft | 438 kts | 187° |
| 2026-04-30 00:35 | 37.64747 | -95.21249 | 29064 ft | 439 kts | 187° |
| 2026-04-30 00:35 | 37.61714 | -95.21744 | 29252 ft | 440 kts | 187° |
| 2026-04-30 00:35 | 37.58679 | -95.22239 | 29433 ft | 441 kts | 187° |
| 2026-04-30 00:35 | 37.55628 | -95.22737 | 29582 ft | 443 kts | 187° |
| 2026-04-30 00:36 | 37.52567 | -95.23237 | 29766 ft | 443 kts | 187° |
| 2026-04-30 00:36 | 37.49509 | -95.23735 | 29945 ft | 444 kts | 187° |
| 2026-04-30 00:36 | 37.46438 | -95.24234 | 30087 ft | 446 kts | 187° |
| 2026-04-30 00:36 | 37.43355 | -95.24735 | 30238 ft | 447 kts | 187° |
| 2026-04-30 00:37 | 37.40311 | -95.25229 | 30390 ft | 448 kts | 187° |
| 2026-04-30 00:37 | 37.37214 | -95.25731 | 30542 ft | 449 kts | 187° |
| 2026-04-30 00:37 | 37.34115 | -95.26233 | 30705 ft | 450 kts | 187° |
| 2026-04-30 00:37 | 37.31012 | -95.26735 | 30859 ft | 450 kts | 187° |
| 2026-04-30 00:38 | 37.27897 | -95.27236 | 30968 ft | 452 kts | 187° |
| 2026-04-30 00:38 | 37.24772 | -95.27739 | 31108 ft | 453 kts | 187° |
| 2026-04-30 00:38 | 37.21642 | -95.28243 | 31258 ft | 454 kts | 187° |
| 2026-04-30 00:38 | 37.18511 | -95.28747 | 31395 ft | 454 kts | 187° |
| 2026-04-30 00:39 | 37.15369 | -95.29253 | 31503 ft | 456 kts | 187° |
| 2026-04-30 00:39 | 37.12262 | -95.29754 | 31621 ft | 457 kts | 187° |
| 2026-04-30 00:39 | 37.09110 | -95.30261 | 31772 ft | 457 kts | 187° |
| 2026-04-30 00:39 | 37.05958 | -95.30767 | 31946 ft | 456 kts | 187° |
| 2026-04-30 00:40 | 37.02810 | -95.31272 | 32144 ft | 455 kts | 187° |
| 2026-04-30 00:40 | 36.99674 | -95.31775 | 32333 ft | 454 kts | 187° |
| 2026-04-30 00:40 | 36.96542 | -95.32277 | 32488 ft | 454 kts | 187° |
| 2026-04-30 00:40 | 36.93411 | -95.32778 | 32636 ft | 454 kts | 187° |
| 2026-04-30 00:41 | 36.90317 | -95.33272 | 32777 ft | 454 kts | 187° |
| 2026-04-30 00:41 | 36.87190 | -95.33770 | 32918 ft | 453 kts | 187° |
| 2026-04-30 00:41 | 36.84062 | -95.34267 | 33065 ft | 453 kts | 187° |
| 2026-04-30 00:41 | 36.80937 | -95.34764 | 33232 ft | 452 kts | 187° |
| 2026-04-30 00:42 | 36.77820 | -95.35261 | 33385 ft | 451 kts | 187° |
| 2026-04-30 00:42 | 36.74707 | -95.35756 | 33532 ft | 451 kts | 187° |
| 2026-04-30 00:42 | 36.71596 | -95.36251 | 33632 ft | 451 kts | 187° |
| 2026-04-30 00:42 | 36.68484 | -95.36746 | 33764 ft | 451 kts | 187° |
| 2026-04-30 00:43 | 36.65375 | -95.37240 | 33908 ft | 450 kts | 187° |
| 2026-04-30 00:43 | 36.62269 | -95.37733 | 34037 ft | 450 kts | 187° |
| 2026-04-30 00:43 | 36.59209 | -95.38218 | 34163 ft | 449 kts | 187° |
| 2026-04-30 00:43 | 36.56110 | -95.38709 | 34288 ft | 449 kts | 187° |
| 2026-04-30 00:44 | 36.53021 | -95.39198 | 34437 ft | 448 kts | 187° |
| 2026-04-30 00:44 | 36.49930 | -95.39686 | 34543 ft | 447 kts | 187° |
| 2026-04-30 00:44 | 36.46840 | -95.40173 | 34645 ft | 447 kts | 187° |
| 2026-04-30 00:44 | 36.43752 | -95.40659 | 34746 ft | 447 kts | 187° |
| 2026-04-30 00:45 | 36.40665 | -95.41145 | 34844 ft | 447 kts | 187° |
| 2026-04-30 00:45 | 36.37579 | -95.41630 | 34947 ft | 447 kts | 187° |
| 2026-04-30 00:45 | 36.34496 | -95.42116 | 35064 ft | 446 kts | 187° |
| 2026-04-30 00:45 | 36.31457 | -95.42594 | 35187 ft | 446 kts | 187° |
| 2026-04-30 00:46 | 36.28386 | -95.43077 | 35299 ft | 445 kts | 187° |
| 2026-04-30 00:46 | 36.22239 | -95.44043 | 35452 ft | 445 kts | 187° |
| 2026-04-30 00:47 | 36.16097 | -95.45006 | 35691 ft | 443 kts | 187° |
| 2026-04-30 00:47 | 36.13041 | -95.45485 | 35797 ft | 443 kts | 187° |
| 2026-04-30 00:47 | 36.09983 | -95.45963 | 35843 ft | 444 kts | 187° |
| 2026-04-30 00:48 | 36.03882 | -95.46925 | 35887 ft | 446 kts | 187° |
| 2026-04-30 00:48 | 35.97726 | -95.47895 | 35893 ft | 445 kts | 187° |
| 2026-04-30 00:49 | 35.91598 | -95.48797 | 35891 ft | 442 kts | 181° |
| 2026-04-30 00:49 | 35.85516 | -95.47966 | 35896 ft | 439 kts | 169° |
| 2026-04-30 00:50 | 35.79494 | -95.46632 | 35894 ft | 440 kts | 169° |
| 2026-04-30 00:50 | 35.73487 | -95.45370 | 35895 ft | 441 kts | 171° |
| 2026-04-30 00:51 | 35.67417 | -95.44194 | 35895 ft | 442 kts | 171° |
| 2026-04-30 00:51 | 35.61333 | -95.43052 | 35895 ft | 443 kts | 171° |
| 2026-04-30 00:52 | 35.55251 | -95.41904 | 35895 ft | 441 kts | 171° |
| 2026-04-30 00:52 | 35.49229 | -95.40758 | 35895 ft | 440 kts | 171° |
| 2026-04-30 00:53 | 35.43182 | -95.39606 | 35896 ft | 440 kts | 171° |
| 2026-04-30 00:53 | 35.37122 | -95.38453 | 35895 ft | 441 kts | 171° |
| 2026-04-30 00:54 | 35.31053 | -95.37298 | 35895 ft | 442 kts | 171° |
| 2026-04-30 00:54 | 35.25018 | -95.36150 | 35895 ft | 442 kts | 171° |
| 2026-04-30 00:55 | 35.18938 | -95.34995 | 35896 ft | 443 kts | 171° |
| 2026-04-30 00:55 | 35.09902 | -95.33281 | 35895 ft | 441 kts | 171° |
| 2026-04-30 00:56 | 35.03846 | -95.32133 | 35896 ft | 440 kts | 171° |
| 2026-04-30 00:56 | 34.97834 | -95.31011 | 35896 ft | 441 kts | 172° |
| 2026-04-30 00:57 | 34.91732 | -95.30151 | 35896 ft | 442 kts | 174° |
| 2026-04-30 00:57 | 34.85613 | -95.29382 | 35895 ft | 443 kts | 174° |
| 2026-04-30 00:58 | 34.79521 | -95.28581 | 35896 ft | 443 kts | 173° |
| 2026-04-30 00:58 | 34.73409 | -95.27743 | 35895 ft | 441 kts | 173° |
| 2026-04-30 00:59 | 34.67317 | -95.26902 | 35896 ft | 440 kts | 173° |
| 2026-04-30 00:59 | 34.61220 | -95.26066 | 35895 ft | 441 kts | 173° |
| 2026-04-30 01:00 | 34.55112 | -95.25234 | 35896 ft | 442 kts | 173° |
| 2026-04-30 01:00 | 34.49041 | -95.24411 | 35895 ft | 442 kts | 173° |
| 2026-04-30 01:01 | 34.42917 | -95.23580 | 35895 ft | 443 kts | 173° |
| 2026-04-30 01:01 | 34.36788 | -95.22750 | 35895 ft | 443 kts | 173° |
| 2026-04-30 01:02 | 34.30677 | -95.22481 | 35900 ft | 440 kts | 193° |
| 2026-04-30 01:02 | 34.27818 | -95.23735 | 35906 ft | 439 kts | 211° |
| 2026-04-30 01:02 | 34.25336 | -95.25792 | 35899 ft | 440 kts | 219° |
| 2026-04-30 01:03 | 34.20613 | -95.30544 | 35891 ft | 443 kts | 221° |
| 2026-04-30 01:03 | 34.15884 | -95.35416 | 35509 ft | 452 kts | 221° |
| 2026-04-30 01:04 | 34.13467 | -95.37849 | 35067 ft | 452 kts | 220° |
| 2026-04-30 01:04 | 34.11045 | -95.40242 | 34527 ft | 448 kts | 220° |
| 2026-04-30 01:04 | 34.08627 | -95.42601 | 33927 ft | 446 kts | 220° |
| 2026-04-30 01:04 | 34.06248 | -95.44910 | 33293 ft | 445 kts | 220° |
| 2026-04-30 01:05 | 34.03835 | -95.47249 | 32639 ft | 446 kts | 220° |
| 2026-04-30 01:05 | 34.01416 | -95.49596 | 31974 ft | 448 kts | 220° |
| 2026-04-30 01:05 | 33.98981 | -95.51964 | 31333 ft | 451 kts | 220° |
| 2026-04-30 01:05 | 33.96544 | -95.54314 | 30972 ft | 447 kts | 219° |
| 2026-04-30 01:06 | 33.94107 | -95.56635 | 30576 ft | 446 kts | 219° |
| 2026-04-30 01:06 | 33.91675 | -95.58940 | 30172 ft | 444 kts | 219° |
| 2026-04-30 01:06 | 33.89257 | -95.61237 | 29731 ft | 442 kts | 219° |
| 2026-04-30 01:06 | 33.87656 | -95.62766 | 29196 ft | 444 kts | 219° |
| 2026-04-30 01:07 | 33.84479 | -95.65810 | 28156 ft | 438 kts | 219° |
| 2026-04-30 01:07 | 33.82108 | -95.68086 | 27414 ft | 433 kts | 219° |
| 2026-04-30 01:07 | 33.79768 | -95.70332 | 26685 ft | 428 kts | 219° |
| 2026-04-30 01:07 | 33.77454 | -95.72552 | 25994 ft | 422 kts | 219° |
| 2026-04-30 01:08 | 33.75177 | -95.74736 | 25313 ft | 417 kts | 219° |
| 2026-04-30 01:08 | 33.73680 | -95.76172 | 24869 ft | 413 kts | 219° |
| 2026-04-30 01:08 | 33.71450 | -95.78307 | 24212 ft | 407 kts | 219° |
| 2026-04-30 01:08 | 33.69256 | -95.80408 | 23559 ft | 401 kts | 219° |
| 2026-04-30 01:09 | 33.67092 | -95.82477 | 22929 ft | 395 kts | 219° |
| 2026-04-30 01:09 | 33.64566 | -95.85474 | 22552 ft | 379 kts | 239° |
| 2026-04-30 01:09 | 33.63557 | -95.88368 | 22479 ft | 379 kts | 261° |
| 2026-04-30 01:09 | 33.63478 | -95.91529 | 22422 ft | 382 kts | 281° |
| 2026-04-30 01:10 | 33.63937 | -95.93557 | 22371 ft | 381 kts | 295° |
| 2026-04-30 01:10 | 33.65335 | -95.96238 | 22297 ft | 379 kts | 315° |
| 2026-04-30 01:10 | 33.67397 | -95.98159 | 22220 ft | 376 kts | 331° |
| 2026-04-30 01:10 | 33.69533 | -95.99956 | 22138 ft | 376 kts | 315° |
| 2026-04-30 01:11 | 33.70979 | -96.02560 | 22019 ft | 380 kts | 292° |
| 2026-04-30 01:11 | 33.71477 | -96.06690 | 21931 ft | 383 kts | 265° |
| 2026-04-30 01:11 | 33.70853 | -96.09804 | 21847 ft | 384 kts | 254° |
| 2026-04-30 01:11 | 33.70192 | -96.12905 | 21720 ft | 384 kts | 262° |
| 2026-04-30 01:12 | 33.69996 | -96.15007 | 21655 ft | 383 kts | 269° |
| 2026-04-30 01:12 | 33.70005 | -96.18193 | 21606 ft | 380 kts | 275° |
| 2026-04-30 01:12 | 33.70226 | -96.21341 | 21551 ft | 378 kts | 278° |
| 2026-04-30 01:12 | 33.70698 | -96.25525 | 21435 ft | 378 kts | 281° |
| 2026-04-30 01:13 | 33.70974 | -96.27588 | 21387 ft | 377 kts | 281° |
| 2026-04-30 01:13 | 33.71416 | -96.30693 | 21306 ft | 377 kts | 281° |
| 2026-04-30 01:13 | 33.71867 | -96.33796 | 21233 ft | 377 kts | 282° |
| 2026-04-30 01:13 | 33.72240 | -96.36363 | 21195 ft | 376 kts | 281° |
| 2026-04-30 01:14 | 33.72668 | -96.39379 | 21131 ft | 375 kts | 281° |
| 2026-04-30 01:14 | 33.73073 | -96.42285 | 21053 ft | 375 kts | 281° |
| 2026-04-30 01:14 | 33.73510 | -96.45470 | 20972 ft | 375 kts | 281° |
| 2026-04-30 01:14 | 33.73931 | -96.48564 | 20891 ft | 375 kts | 281° |
| 2026-04-30 01:15 | 33.74343 | -96.51657 | 20824 ft | 375 kts | 281° |
| 2026-04-30 01:15 | 33.74746 | -96.54741 | 20779 ft | 373 kts | 280° |
| 2026-04-30 01:15 | 33.75147 | -96.57826 | 20701 ft | 373 kts | 280° |
| 2026-04-30 01:15 | 33.75549 | -96.60902 | 20623 ft | 373 kts | 281° |
| 2026-04-30 01:16 | 33.75952 | -96.63987 | 20547 ft | 373 kts | 281° |
| 2026-04-30 01:16 | 33.76355 | -96.67063 | 20492 ft | 372 kts | 281° |
| 2026-04-30 01:16 | 33.76753 | -96.70088 | 20437 ft | 371 kts | 281° |
| 2026-04-30 01:16 | 33.77157 | -96.73157 | 20362 ft | 371 kts | 281° |
| 2026-04-30 01:17 | 33.77561 | -96.76224 | 20285 ft | 371 kts | 281° |
| 2026-04-30 01:17 | 33.77968 | -96.79322 | 20215 ft | 371 kts | 281° |
| 2026-04-30 01:17 | 33.78366 | -96.82345 | 20174 ft | 370 kts | 281° |
| 2026-04-30 01:17 | 33.78768 | -96.85399 | 20103 ft | 370 kts | 281° |
| 2026-04-30 01:18 | 33.79170 | -96.88452 | 20035 ft | 370 kts | 281° |
| 2026-04-30 01:18 | 33.79571 | -96.91503 | 19958 ft | 370 kts | 281° |
| 2026-04-30 01:18 | 33.79971 | -96.94555 | 19903 ft | 369 kts | 281° |
| 2026-04-30 01:18 | 33.80370 | -96.97596 | 19860 ft | 368 kts | 281° |
| 2026-04-30 01:19 | 33.80757 | -97.00584 | 19786 ft | 368 kts | 280° |
| 2026-04-30 01:19 | 33.81146 | -97.03640 | 19713 ft | 368 kts | 280° |
| 2026-04-30 01:19 | 33.81530 | -97.06686 | 19644 ft | 368 kts | 280° |
| 2026-04-30 01:19 | 33.81913 | -97.09724 | 19605 ft | 367 kts | 280° |
| 2026-04-30 01:20 | 33.82295 | -97.12757 | 19551 ft | 367 kts | 280° |
| 2026-04-30 01:20 | 33.82678 | -97.15799 | 19538 ft | 369 kts | 280° |
| 2026-04-30 01:20 | 33.83063 | -97.18848 | 19613 ft | 368 kts | 280° |
| 2026-04-30 01:20 | 33.83448 | -97.21878 | 19686 ft | 367 kts | 280° |
| 2026-04-30 01:21 | 33.83508 | -97.24946 | 19662 ft | 371 kts | 261° |
| 2026-04-30 01:21 | 33.82613 | -97.27858 | 19660 ft | 375 kts | 239° |
| 2026-04-30 01:21 | 33.81375 | -97.30557 | 19698 ft | 372 kts | 254° |
| 2026-04-30 01:21 | 33.80916 | -97.33598 | 19699 ft | 370 kts | 266° |
| 2026-04-30 01:22 | 33.80701 | -97.36686 | 19721 ft | 370 kts | 267° |
| 2026-04-30 01:22 | 33.80510 | -97.39772 | 19730 ft | 371 kts | 268° |
| 2026-04-30 01:22 | 33.80332 | -97.42875 | 19696 ft | 374 kts | 268° |
| 2026-04-30 01:22 | 33.80134 | -97.45991 | 19615 ft | 374 kts | 262° |
| 2026-04-30 01:23 | 33.79302 | -97.48944 | 19521 ft | 377 kts | 241° |
| 2026-04-30 01:23 | 33.77632 | -97.51371 | 19426 ft | 381 kts | 220° |
| 2026-04-30 01:23 | 33.75346 | -97.52982 | 19322 ft | 384 kts | 200° |
| 2026-04-30 01:23 | 33.72805 | -97.53965 | 19225 ft | 384 kts | 200° |
| 2026-04-30 01:24 | 33.70398 | -97.55236 | 19117 ft | 383 kts | 210° |
| 2026-04-30 01:24 | 33.68162 | -97.57003 | 19013 ft | 386 kts | 218° |
| 2026-04-30 01:24 | 33.66088 | -97.59041 | 18917 ft | 386 kts | 222° |
| 2026-04-30 01:24 | 33.63992 | -97.61047 | 18813 ft | 387 kts | 210° |
| 2026-04-30 01:25 | 33.61485 | -97.62187 | 18725 ft | 388 kts | 191° |
| 2026-04-30 01:25 | 33.58811 | -97.62618 | 18624 ft | 388 kts | 185° |
| 2026-04-30 01:25 | 33.56122 | -97.62872 | 18518 ft | 387 kts | 184° |
| 2026-04-30 01:25 | 33.53446 | -97.63065 | 18415 ft | 386 kts | 183° |
| 2026-04-30 01:26 | 33.50767 | -97.63229 | 18313 ft | 386 kts | 183° |
| 2026-04-30 01:26 | 33.48124 | -97.63387 | 18214 ft | 385 kts | 183° |
| 2026-04-30 01:26 | 33.45448 | -97.63561 | 18114 ft | 385 kts | 183° |
| 2026-04-30 01:26 | 33.42785 | -97.63755 | 18011 ft | 384 kts | 184° |
| 2026-04-30 01:27 | 33.40119 | -97.63793 | 17911 ft | 383 kts | 171° |
| 2026-04-30 01:27 | 33.37598 | -97.62857 | 17821 ft | 382 kts | 150° |
| 2026-04-30 01:27 | 33.35474 | -97.60991 | 17732 ft | 380 kts | 136° |
| 2026-04-30 01:27 | 33.33562 | -97.58810 | 17622 ft | 379 kts | 134° |
| 2026-04-30 01:28 | 33.31711 | -97.56579 | 17519 ft | 378 kts | 133° |
| 2026-04-30 01:28 | 33.29884 | -97.54330 | 17423 ft | 377 kts | 133° |
| 2026-04-30 01:28 | 33.28085 | -97.52106 | 17314 ft | 377 kts | 133° |
| 2026-04-30 01:28 | 33.26251 | -97.49872 | 17210 ft | 376 kts | 133° |
| 2026-04-30 01:29 | 33.24405 | -97.47659 | 17114 ft | 376 kts | 134° |
| 2026-04-30 01:29 | 33.22549 | -97.45464 | 17014 ft | 375 kts | 134° |
| 2026-04-30 01:29 | 33.20689 | -97.43283 | 16914 ft | 375 kts | 134° |
| 2026-04-30 01:29 | 33.18827 | -97.41113 | 16813 ft | 374 kts | 134° |
| 2026-04-30 01:30 | 33.16965 | -97.38948 | 16712 ft | 373 kts | 134° |
| 2026-04-30 01:30 | 33.15104 | -97.36786 | 16605 ft | 373 kts | 134° |
| 2026-04-30 01:30 | 33.13249 | -97.34630 | 16513 ft | 372 kts | 134° |
| 2026-04-30 01:30 | 33.11420 | -97.32502 | 16414 ft | 372 kts | 134° |